sensor_id;sensor_type;location;lat;lon;timestamp;P1;durP1;ratioP1;P2;durP2;ratioP2
35550;SDS011;21655;46.056;13.616;2023-05-10T00:01:42;4.32;;;2.50;;
35550;SDS011;21655;46.056;13.616;2023-05-10T00:04:07;5.88;;;2.40;;
35550;SDS011;21655;46.056;13.616;2023-05-10T00:06:33;4.03;;;2.45;;
35550;SDS011;21655;46.056;13.616;2023-05-10T00:08:58;8.20;;;2.55;;
35550;SDS011;21655;46.056;13.616;2023-05-10T00:11:24;5.13;;;2.30;;
35550;SDS011;21655;46.056;13.616;2023-05-10T00:13:49;4.10;;;2.38;;
35550;SDS011;21655;46.056;13.616;2023-05-10T00:16:14;4.88;;;2.25;;
35550;SDS011;21655;46.056;13.616;2023-05-10T00:18:40;4.55;;;2.33;;
35550;SDS011;21655;46.056;13.616;2023-05-10T00:21:06;4.82;;;2.75;;
35550;SDS011;21655;46.056;13.616;2023-05-10T00:23:31;7.00;;;2.38;;
35550;SDS011;21655;46.056;13.616;2023-05-10T00:25:57;6.15;;;2.25;;
35550;SDS011;21655;46.056;13.616;2023-05-10T00:28:22;5.80;;;2.28;;
35550;SDS011;21655;46.056;13.616;2023-05-10T00:30:47;5.28;;;2.55;;
35550;SDS011;21655;46.056;13.616;2023-05-10T00:33:13;4.90;;;2.35;;
35550;SDS011;21655;46.056;13.616;2023-05-10T00:35:39;3.75;;;2.28;;
35550;SDS011;21655;46.056;13.616;2023-05-10T00:38:04;3.08;;;1.80;;
35550;SDS011;21655;46.056;13.616;2023-05-10T00:40:30;4.55;;;2.08;;
35550;SDS011;21655;46.056;13.616;2023-05-10T00:42:55;4.63;;;2.33;;
35550;SDS011;21655;46.056;13.616;2023-05-10T00:45:21;4.38;;;2.28;;
35550;SDS011;21655;46.056;13.616;2023-05-10T00:47:48;5.50;;;2.30;;
35550;SDS011;21655;46.056;13.616;2023-05-10T00:50:14;5.40;;;2.28;;
35550;SDS011;21655;46.056;13.616;2023-05-10T00:52:40;9.55;;;2.65;;
35550;SDS011;21655;46.056;13.616;2023-05-10T00:55:06;6.90;;;2.53;;
35550;SDS011;21655;46.056;13.616;2023-05-10T00:57:32;3.70;;;1.95;;
35550;SDS011;21655;46.056;13.616;2023-05-10T00:59:58;7.55;;;2.42;;
35550;SDS011;21655;46.056;13.616;2023-05-10T01:02:24;5.63;;;2.20;;
35550;SDS011;21655;46.056;13.616;2023-05-10T01:04:49;6.32;;;2.55;;
35550;SDS011;21655;46.056;13.616;2023-05-10T01:07:15;5.13;;;2.28;;
35550;SDS011;21655;46.056;13.616;2023-05-10T01:09:40;9.10;;;2.60;;
35550;SDS011;21655;46.056;13.616;2023-05-10T01:12:06;5.47;;;2.22;;
35550;SDS011;21655;46.056;13.616;2023-05-10T01:14:32;5.28;;;2.40;;
35550;SDS011;21655;46.056;13.616;2023-05-10T01:16:59;5.10;;;2.30;;
35550;SDS011;21655;46.056;13.616;2023-05-10T01:19:26;5.75;;;2.50;;
35550;SDS011;21655;46.056;13.616;2023-05-10T01:24:40;6.13;;;2.40;;
35550;SDS011;21655;46.056;13.616;2023-05-10T01:27:30;3.58;;;2.42;;
35550;SDS011;21655;46.056;13.616;2023-05-10T01:35:59;4.65;;;2.45;;
35550;SDS011;21655;46.056;13.616;2023-05-10T01:38:41;4.80;;;2.63;;
35550;SDS011;21655;46.056;13.616;2023-05-10T01:41:18;4.75;;;2.45;;
35550;SDS011;21655;46.056;13.616;2023-05-10T01:47:07;5.03;;;2.50;;
35550;SDS011;21655;46.056;13.616;2023-05-10T01:49:41;6.78;;;2.60;;
35550;SDS011;21655;46.056;13.616;2023-05-10T01:52:12;5.78;;;2.88;;
35550;SDS011;21655;46.056;13.616;2023-05-10T01:54:41;6.00;;;2.28;;
35550;SDS011;21655;46.056;13.616;2023-05-10T01:57:10;4.80;;;2.42;;
35550;SDS011;21655;46.056;13.616;2023-05-10T01:59:39;3.80;;;2.50;;
35550;SDS011;21655;46.056;13.616;2023-05-10T02:02:07;4.20;;;2.38;;
35550;SDS011;21655;46.056;13.616;2023-05-10T02:04:37;3.78;;;2.40;;
35550;SDS011;21655;46.056;13.616;2023-05-10T02:07:04;6.63;;;2.60;;
35550;SDS011;21655;46.056;13.616;2023-05-10T02:09:31;6.43;;;3.05;;
35550;SDS011;21655;46.056;13.616;2023-05-10T02:11:58;6.20;;;2.40;;
35550;SDS011;21655;46.056;13.616;2023-05-10T02:14:27;4.85;;;2.53;;
35550;SDS011;21655;46.056;13.616;2023-05-10T02:16:55;6.57;;;2.60;;
35550;SDS011;21655;46.056;13.616;2023-05-10T02:19:23;5.55;;;2.88;;
35550;SDS011;21655;46.056;13.616;2023-05-10T02:21:50;3.95;;;2.45;;
35550;SDS011;21655;46.056;13.616;2023-05-10T02:24:16;5.55;;;2.40;;
35550;SDS011;21655;46.056;13.616;2023-05-10T02:26:42;5.63;;;2.47;;
35550;SDS011;21655;46.056;13.616;2023-05-10T02:29:10;3.70;;;2.42;;
35550;SDS011;21655;46.056;13.616;2023-05-10T02:31:37;4.72;;;2.80;;
35550;SDS011;21655;46.056;13.616;2023-05-10T02:34:04;4.70;;;2.67;;
35550;SDS011;21655;46.056;13.616;2023-05-10T02:36:32;3.80;;;2.65;;
35550;SDS011;21655;46.056;13.616;2023-05-10T02:38:58;9.02;;;2.63;;
35550;SDS011;21655;46.056;13.616;2023-05-10T02:41:26;4.05;;;2.40;;
35550;SDS011;21655;46.056;13.616;2023-05-10T02:43:56;5.20;;;2.70;;
35550;SDS011;21655;46.056;13.616;2023-05-10T02:46:24;9.98;;;2.85;;
35550;SDS011;21655;46.056;13.616;2023-05-10T02:48:50;5.50;;;2.95;;
35550;SDS011;21655;46.056;13.616;2023-05-10T02:51:16;6.15;;;2.30;;
35550;SDS011;21655;46.056;13.616;2023-05-10T02:53:43;5.43;;;2.80;;
35550;SDS011;21655;46.056;13.616;2023-05-10T02:56:29;4.40;;;2.58;;
35550;SDS011;21655;46.056;13.616;2023-05-10T02:58:58;4.32;;;2.70;;
35550;SDS011;21655;46.056;13.616;2023-05-10T03:01:23;5.28;;;2.63;;
35550;SDS011;21655;46.056;13.616;2023-05-10T03:03:49;3.88;;;2.42;;
35550;SDS011;21655;46.056;13.616;2023-05-10T03:06:14;4.65;;;2.45;;
35550;SDS011;21655;46.056;13.616;2023-05-10T03:08:41;5.82;;;2.83;;
35550;SDS011;21655;46.056;13.616;2023-05-10T03:13:56;5.13;;;2.80;;
35550;SDS011;21655;46.056;13.616;2023-05-10T03:16:42;5.45;;;2.28;;
35550;SDS011;21655;46.056;13.616;2023-05-10T03:19:15;5.45;;;2.70;;
35550;SDS011;21655;46.056;13.616;2023-05-10T03:21:49;3.78;;;2.25;;
35550;SDS011;21655;46.056;13.616;2023-05-10T03:24:16;6.72;;;2.42;;
35550;SDS011;21655;46.056;13.616;2023-05-10T03:26:45;7.32;;;2.72;;
35550;SDS011;21655;46.056;13.616;2023-05-10T03:29:11;6.90;;;3.25;;
35550;SDS011;21655;46.056;13.616;2023-05-10T03:31:39;4.90;;;2.60;;
35550;SDS011;21655;46.056;13.616;2023-05-10T03:34:04;6.55;;;3.28;;
35550;SDS011;21655;46.056;13.616;2023-05-10T03:36:31;7.57;;;2.63;;
35550;SDS011;21655;46.056;13.616;2023-05-10T03:38:56;4.28;;;2.53;;
35550;SDS011;21655;46.056;13.616;2023-05-10T03:41:22;5.07;;;2.80;;
35550;SDS011;21655;46.056;13.616;2023-05-10T03:43:47;7.10;;;2.75;;
35550;SDS011;21655;46.056;13.616;2023-05-10T03:46:12;8.85;;;2.70;;
35550;SDS011;21655;46.056;13.616;2023-05-10T03:48:38;6.70;;;2.60;;
35550;SDS011;21655;46.056;13.616;2023-05-10T03:51:04;4.65;;;2.88;;
35550;SDS011;21655;46.056;13.616;2023-05-10T03:53:29;6.95;;;2.85;;
35550;SDS011;21655;46.056;13.616;2023-05-10T03:55:54;7.45;;;2.95;;
35550;SDS011;21655;46.056;13.616;2023-05-10T03:58:20;7.80;;;2.80;;
35550;SDS011;21655;46.056;13.616;2023-05-10T04:00:46;5.15;;;2.80;;
35550;SDS011;21655;46.056;13.616;2023-05-10T04:03:12;6.20;;;2.60;;
35550;SDS011;21655;46.056;13.616;2023-05-10T04:05:38;4.15;;;2.30;;
35550;SDS011;21655;46.056;13.616;2023-05-10T04:08:03;5.40;;;3.15;;
35550;SDS011;21655;46.056;13.616;2023-05-10T04:10:30;7.35;;;2.90;;
35550;SDS011;21655;46.056;13.616;2023-05-10T04:12:56;6.88;;;2.50;;
35550;SDS011;21655;46.056;13.616;2023-05-10T04:15:21;9.00;;;3.35;;
35550;SDS011;21655;46.056;13.616;2023-05-10T04:17:47;5.70;;;2.80;;
35550;SDS011;21655;46.056;13.616;2023-05-10T04:20:12;7.15;;;2.90;;
35550;SDS011;21655;46.056;13.616;2023-05-10T04:22:38;7.10;;;2.80;;
35550;SDS011;21655;46.056;13.616;2023-05-10T04:25:04;6.20;;;2.60;;
35550;SDS011;21655;46.056;13.616;2023-05-10T04:27:30;7.10;;;2.83;;
35550;SDS011;21655;46.056;13.616;2023-05-10T04:29:56;10.98;;;3.10;;
35550;SDS011;21655;46.056;13.616;2023-05-10T04:32:21;5.22;;;2.67;;
35550;SDS011;21655;46.056;13.616;2023-05-10T04:34:47;6.22;;;2.58;;
35550;SDS011;21655;46.056;13.616;2023-05-10T04:37:12;7.22;;;2.17;;
35550;SDS011;21655;46.056;13.616;2023-05-10T04:39:38;6.55;;;2.70;;
35550;SDS011;21655;46.056;13.616;2023-05-10T04:42:03;5.22;;;2.40;;
35550;SDS011;21655;46.056;13.616;2023-05-10T04:44:30;4.70;;;2.58;;
35550;SDS011;21655;46.056;13.616;2023-05-10T04:46:58;5.55;;;2.58;;
35550;SDS011;21655;46.056;13.616;2023-05-10T04:49:24;6.50;;;3.03;;
35550;SDS011;21655;46.056;13.616;2023-05-10T04:51:49;5.18;;;2.90;;
35550;SDS011;21655;46.056;13.616;2023-05-10T04:54:14;6.55;;;2.60;;
35550;SDS011;21655;46.056;13.616;2023-05-10T04:56:40;6.78;;;3.05;;
35550;SDS011;21655;46.056;13.616;2023-05-10T04:59:06;7.97;;;2.70;;
35550;SDS011;21655;46.056;13.616;2023-05-10T05:01:31;5.35;;;3.00;;
35550;SDS011;21655;46.056;13.616;2023-05-10T05:03:57;9.40;;;6.50;;
35550;SDS011;21655;46.056;13.616;2023-05-10T05:06:23;6.55;;;2.95;;
35550;SDS011;21655;46.056;13.616;2023-05-10T05:08:50;4.88;;;2.53;;
35550;SDS011;21655;46.056;13.616;2023-05-10T05:11:16;8.27;;;3.40;;
35550;SDS011;21655;46.056;13.616;2023-05-10T05:13:42;15.70;;;8.38;;
35550;SDS011;21655;46.056;13.616;2023-05-10T05:16:08;14.23;;;6.82;;
35550;SDS011;21655;46.056;13.616;2023-05-10T05:18:33;6.03;;;4.28;;
35550;SDS011;21655;46.056;13.616;2023-05-10T05:20:59;6.38;;;2.95;;
35550;SDS011;21655;46.056;13.616;2023-05-10T05:23:24;6.40;;;3.22;;
35550;SDS011;21655;46.056;13.616;2023-05-10T05:25:53;6.47;;;3.30;;
35550;SDS011;21655;46.056;13.616;2023-05-10T05:28:19;6.68;;;3.38;;
35550;SDS011;21655;46.056;13.616;2023-05-10T05:30:45;6.35;;;3.13;;
35550;SDS011;21655;46.056;13.616;2023-05-10T05:33:11;6.32;;;3.00;;
35550;SDS011;21655;46.056;13.616;2023-05-10T05:35:38;6.18;;;3.30;;
35550;SDS011;21655;46.056;13.616;2023-05-10T05:38:03;8.57;;;3.38;;
35550;SDS011;21655;46.056;13.616;2023-05-10T05:40:29;7.78;;;3.10;;
35550;SDS011;21655;46.056;13.616;2023-05-10T05:42:54;10.45;;;3.72;;
35550;SDS011;21655;46.056;13.616;2023-05-10T05:45:20;9.15;;;2.97;;
35550;SDS011;21655;46.056;13.616;2023-05-10T05:47:46;10.45;;;3.30;;
35550;SDS011;21655;46.056;13.616;2023-05-10T05:50:11;8.02;;;3.33;;
35550;SDS011;21655;46.056;13.616;2023-05-10T05:52:36;8.30;;;3.05;;
35550;SDS011;21655;46.056;13.616;2023-05-10T05:55:02;8.10;;;3.33;;
35550;SDS011;21655;46.056;13.616;2023-05-10T05:57:28;4.32;;;3.08;;
35550;SDS011;21655;46.056;13.616;2023-05-10T05:59:53;5.68;;;3.30;;
35550;SDS011;21655;46.056;13.616;2023-05-10T06:02:18;7.45;;;3.55;;
35550;SDS011;21655;46.056;13.616;2023-05-10T06:04:44;12.27;;;3.55;;
35550;SDS011;21655;46.056;13.616;2023-05-10T06:07:09;7.80;;;3.38;;
35550;SDS011;21655;46.056;13.616;2023-05-10T06:09:35;6.53;;;3.28;;
35550;SDS011;21655;46.056;13.616;2023-05-10T06:12:00;7.13;;;3.50;;
35550;SDS011;21655;46.056;13.616;2023-05-10T06:14:26;7.97;;;3.25;;
35550;SDS011;21655;46.056;13.616;2023-05-10T06:16:52;7.55;;;3.33;;
35550;SDS011;21655;46.056;13.616;2023-05-10T06:19:17;12.57;;;3.38;;
35550;SDS011;21655;46.056;13.616;2023-05-10T06:21:44;7.05;;;3.00;;
35550;SDS011;21655;46.056;13.616;2023-05-10T06:24:09;7.97;;;3.47;;
35550;SDS011;21655;46.056;13.616;2023-05-10T06:26:35;7.00;;;2.83;;
35550;SDS011;21655;46.056;13.616;2023-05-10T06:29:00;9.00;;;3.30;;
35550;SDS011;21655;46.056;13.616;2023-05-10T06:31:26;7.60;;;3.13;;
35550;SDS011;21655;46.056;13.616;2023-05-10T06:33:51;6.70;;;3.45;;
35550;SDS011;21655;46.056;13.616;2023-05-10T06:36:17;6.13;;;3.08;;
35550;SDS011;21655;46.056;13.616;2023-05-10T06:38:42;9.27;;;3.05;;
35550;SDS011;21655;46.056;13.616;2023-05-10T06:41:07;9.13;;;3.20;;
35550;SDS011;21655;46.056;13.616;2023-05-10T06:43:33;6.03;;;2.90;;
35550;SDS011;21655;46.056;13.616;2023-05-10T06:45:58;10.45;;;3.28;;
35550;SDS011;21655;46.056;13.616;2023-05-10T06:48:24;8.65;;;3.47;;
35550;SDS011;21655;46.056;13.616;2023-05-10T06:50:49;8.68;;;4.22;;
35550;SDS011;21655;46.056;13.616;2023-05-10T06:53:15;6.15;;;3.60;;
35550;SDS011;21655;46.056;13.616;2023-05-10T06:55:41;7.90;;;3.50;;
35550;SDS011;21655;46.056;13.616;2023-05-10T06:58:06;7.13;;;3.42;;
35550;SDS011;21655;46.056;13.616;2023-05-10T07:00:31;7.18;;;3.67;;
35550;SDS011;21655;46.056;13.616;2023-05-10T07:02:57;8.02;;;3.63;;
35550;SDS011;21655;46.056;13.616;2023-05-10T07:05:23;9.75;;;3.70;;
35550;SDS011;21655;46.056;13.616;2023-05-10T07:07:48;4.88;;;3.25;;
35550;SDS011;21655;46.056;13.616;2023-05-10T07:10:14;7.80;;;4.38;;
35550;SDS011;21655;46.056;13.616;2023-05-10T07:12:39;6.15;;;3.85;;
35550;SDS011;21655;46.056;13.616;2023-05-10T07:15:05;6.43;;;3.75;;
35550;SDS011;21655;46.056;13.616;2023-05-10T07:17:31;8.55;;;3.58;;
35550;SDS011;21655;46.056;13.616;2023-05-10T07:19:58;9.43;;;4.10;;
35550;SDS011;21655;46.056;13.616;2023-05-10T07:22:23;8.27;;;3.85;;
35550;SDS011;21655;46.056;13.616;2023-05-10T07:24:49;8.63;;;3.70;;
35550;SDS011;21655;46.056;13.616;2023-05-10T07:27:14;6.00;;;4.10;;
35550;SDS011;21655;46.056;13.616;2023-05-10T07:29:39;7.78;;;3.50;;
35550;SDS011;21655;46.056;13.616;2023-05-10T07:32:05;10.93;;;3.85;;
35550;SDS011;21655;46.056;13.616;2023-05-10T07:34:31;7.38;;;3.42;;
35550;SDS011;21655;46.056;13.616;2023-05-10T07:36:59;9.57;;;3.63;;
35550;SDS011;21655;46.056;13.616;2023-05-10T07:39:26;7.90;;;3.70;;
35550;SDS011;21655;46.056;13.616;2023-05-10T07:41:52;7.10;;;3.03;;
35550;SDS011;21655;46.056;13.616;2023-05-10T07:44:17;6.57;;;3.35;;
35550;SDS011;21655;46.056;13.616;2023-05-10T07:46:45;9.55;;;3.72;;
35550;SDS011;21655;46.056;13.616;2023-05-10T07:49:11;7.47;;;4.28;;
35550;SDS011;21655;46.056;13.616;2023-05-10T07:51:37;8.77;;;3.78;;
35550;SDS011;21655;46.056;13.616;2023-05-10T07:54:02;9.82;;;3.70;;
35550;SDS011;21655;46.056;13.616;2023-05-10T07:56:28;13.02;;;3.78;;
35550;SDS011;21655;46.056;13.616;2023-05-10T07:58:56;9.02;;;3.83;;
35550;SDS011;21655;46.056;13.616;2023-05-10T08:01:25;5.68;;;3.58;;
35550;SDS011;21655;46.056;13.616;2023-05-10T08:03:51;6.47;;;3.20;;
35550;SDS011;21655;46.056;13.616;2023-05-10T08:06:18;9.55;;;3.90;;
35550;SDS011;21655;46.056;13.616;2023-05-10T08:08:45;6.60;;;4.25;;
35550;SDS011;21655;46.056;13.616;2023-05-10T08:11:14;6.60;;;3.80;;
35550;SDS011;21655;46.056;13.616;2023-05-10T08:13:41;8.30;;;3.80;;
35550;SDS011;21655;46.056;13.616;2023-05-10T08:16:06;9.40;;;3.85;;
35550;SDS011;21655;46.056;13.616;2023-05-10T08:18:32;9.15;;;4.13;;
35550;SDS011;21655;46.056;13.616;2023-05-10T08:20:57;7.90;;;3.58;;
35550;SDS011;21655;46.056;13.616;2023-05-10T08:23:23;8.95;;;4.45;;
35550;SDS011;21655;46.056;13.616;2023-05-10T08:25:48;9.02;;;3.50;;
35550;SDS011;21655;46.056;13.616;2023-05-10T08:28:13;6.40;;;4.05;;
35550;SDS011;21655;46.056;13.616;2023-05-10T08:30:39;7.03;;;3.90;;
35550;SDS011;21655;46.056;13.616;2023-05-10T08:33:04;8.50;;;3.72;;
35550;SDS011;21655;46.056;13.616;2023-05-10T08:35:30;7.80;;;3.72;;
35550;SDS011;21655;46.056;13.616;2023-05-10T08:37:55;6.28;;;3.80;;
35550;SDS011;21655;46.056;13.616;2023-05-10T08:40:21;8.77;;;3.90;;
35550;SDS011;21655;46.056;13.616;2023-05-10T08:43:04;6.30;;;4.00;;
35550;SDS011;21655;46.056;13.616;2023-05-10T08:45:37;7.32;;;3.65;;
35550;SDS011;21655;46.056;13.616;2023-05-10T08:48:05;5.40;;;3.42;;
35550;SDS011;21655;46.056;13.616;2023-05-10T08:50:32;8.50;;;3.95;;
35550;SDS011;21655;46.056;13.616;2023-05-10T08:53:00;7.85;;;3.90;;
35550;SDS011;21655;46.056;13.616;2023-05-10T08:55:29;8.82;;;3.95;;
35550;SDS011;21655;46.056;13.616;2023-05-10T08:57:57;7.10;;;3.95;;
35550;SDS011;21655;46.056;13.616;2023-05-10T09:00:23;6.32;;;3.78;;
35550;SDS011;21655;46.056;13.616;2023-05-10T09:02:49;8.88;;;4.22;;
35550;SDS011;21655;46.056;13.616;2023-05-10T09:05:15;5.55;;;3.67;;
35550;SDS011;21655;46.056;13.616;2023-05-10T09:07:41;9.45;;;4.15;;
35550;SDS011;21655;46.056;13.616;2023-05-10T09:10:07;11.27;;;4.85;;
35550;SDS011;21655;46.056;13.616;2023-05-10T09:12:34;10.40;;;4.30;;
35550;SDS011;21655;46.056;13.616;2023-05-10T09:15:00;6.65;;;3.80;;
35550;SDS011;21655;46.056;13.616;2023-05-10T09:17:27;7.78;;;3.95;;
35550;SDS011;21655;46.056;13.616;2023-05-10T09:20:01;6.40;;;3.72;;
35550;SDS011;21655;46.056;13.616;2023-05-10T09:22:29;7.07;;;3.83;;
35550;SDS011;21655;46.056;13.616;2023-05-10T09:25:14;5.80;;;4.03;;
35550;SDS011;21655;46.056;13.616;2023-05-10T09:27:41;9.10;;;4.40;;
35550;SDS011;21655;46.056;13.616;2023-05-10T09:30:10;6.43;;;3.85;;
35550;SDS011;21655;46.056;13.616;2023-05-10T09:32:41;7.68;;;3.72;;
35550;SDS011;21655;46.056;13.616;2023-05-10T09:35:14;8.05;;;4.13;;
35550;SDS011;21655;46.056;13.616;2023-05-10T09:37:41;5.63;;;3.50;;
35550;SDS011;21655;46.056;13.616;2023-05-10T09:40:13;8.50;;;4.45;;
35550;SDS011;21655;46.056;13.616;2023-05-10T09:45:30;8.48;;;4.00;;
35550;SDS011;21655;46.056;13.616;2023-05-10T09:47:56;10.13;;;4.60;;
35550;SDS011;21655;46.056;13.616;2023-05-10T09:50:23;8.60;;;4.32;;
35550;SDS011;21655;46.056;13.616;2023-05-10T09:52:50;9.30;;;4.72;;
35550;SDS011;21655;46.056;13.616;2023-05-10T09:55:21;9.27;;;4.90;;
35550;SDS011;21655;46.056;13.616;2023-05-10T09:57:49;6.32;;;4.20;;
35550;SDS011;21655;46.056;13.616;2023-05-10T10:00:23;6.35;;;4.38;;
35550;SDS011;21655;46.056;13.616;2023-05-10T10:02:57;11.20;;;5.07;;
35550;SDS011;21655;46.056;13.616;2023-05-10T10:05:28;7.30;;;4.57;;
35550;SDS011;21655;46.056;13.616;2023-05-10T10:07:59;6.97;;;4.60;;
35550;SDS011;21655;46.056;13.616;2023-05-10T10:10:26;8.30;;;5.00;;
35550;SDS011;21655;46.056;13.616;2023-05-10T10:12:52;12.15;;;4.97;;
35550;SDS011;21655;46.056;13.616;2023-05-10T10:15:18;11.65;;;5.47;;
35550;SDS011;21655;46.056;13.616;2023-05-10T10:17:48;6.95;;;4.75;;
35550;SDS011;21655;46.056;13.616;2023-05-10T10:20:14;11.40;;;5.38;;
35550;SDS011;21655;46.056;13.616;2023-05-10T10:22:41;7.85;;;5.05;;
35550;SDS011;21655;46.056;13.616;2023-05-10T10:25:08;7.43;;;4.50;;
35550;SDS011;21655;46.056;13.616;2023-05-10T10:35:31;11.40;;;5.20;;
35550;SDS011;21655;46.056;13.616;2023-05-10T10:37:57;8.90;;;5.32;;
35550;SDS011;21655;46.056;13.616;2023-05-10T10:42:52;9.18;;;6.20;;
35550;SDS011;21655;46.056;13.616;2023-05-10T10:45:19;9.80;;;6.10;;
35550;SDS011;21655;46.056;13.616;2023-05-10T10:47:46;9.55;;;6.60;;
35550;SDS011;21655;46.056;13.616;2023-05-10T10:50:11;9.95;;;6.70;;
35550;SDS011;21655;46.056;13.616;2023-05-10T10:52:44;10.15;;;5.93;;
35550;SDS011;21655;46.056;13.616;2023-05-10T10:55:15;11.65;;;6.90;;
35550;SDS011;21655;46.056;13.616;2023-05-10T10:57:50;10.63;;;7.07;;
35550;SDS011;21655;46.056;13.616;2023-05-10T11:00:34;13.30;;;7.28;;
35550;SDS011;21655;46.056;13.616;2023-05-10T11:03:10;9.23;;;6.75;;
35550;SDS011;21655;46.056;13.616;2023-05-10T11:05:50;10.80;;;7.47;;
35550;SDS011;21655;46.056;13.616;2023-05-10T11:08:26;12.25;;;7.70;;
35550;SDS011;21655;46.056;13.616;2023-05-10T11:15:53;11.10;;;7.60;;
35550;SDS011;21655;46.056;13.616;2023-05-10T11:18:20;8.50;;;6.43;;
35550;SDS011;21655;46.056;13.616;2023-05-10T11:20:52;9.65;;;7.03;;
35550;SDS011;21655;46.056;13.616;2023-05-10T11:23:21;11.82;;;6.90;;
35550;SDS011;21655;46.056;13.616;2023-05-10T11:25:47;10.30;;;7.45;;
35550;SDS011;21655;46.056;13.616;2023-05-10T11:28:13;9.32;;;7.03;;
35550;SDS011;21655;46.056;13.616;2023-05-10T11:30:39;10.07;;;7.05;;
35550;SDS011;21655;46.056;13.616;2023-05-10T11:33:06;9.65;;;6.57;;
35550;SDS011;21655;46.056;13.616;2023-05-10T11:35:38;12.10;;;6.30;;
35550;SDS011;21655;46.056;13.616;2023-05-10T11:38:08;10.80;;;7.63;;
35550;SDS011;21655;46.056;13.616;2023-05-10T11:40:35;8.65;;;6.88;;
35550;SDS011;21655;46.056;13.616;2023-05-10T11:43:02;10.70;;;7.50;;
35550;SDS011;21655;46.056;13.616;2023-05-10T11:45:28;17.77;;;8.65;;
35550;SDS011;21655;46.056;13.616;2023-05-10T11:47:55;16.55;;;10.25;;
35550;SDS011;21655;46.056;13.616;2023-05-10T11:50:21;13.23;;;8.40;;
35550;SDS011;21655;46.056;13.616;2023-05-10T11:52:51;15.20;;;8.65;;
35550;SDS011;21655;46.056;13.616;2023-05-10T11:55:17;12.57;;;8.32;;
35550;SDS011;21655;46.056;13.616;2023-05-10T11:57:42;9.98;;;6.78;;
35550;SDS011;21655;46.056;13.616;2023-05-10T12:00:10;12.20;;;7.50;;
35550;SDS011;21655;46.056;13.616;2023-05-10T12:02:37;13.65;;;8.23;;
35550;SDS011;21655;46.056;13.616;2023-05-10T12:05:03;11.98;;;8.63;;
35550;SDS011;21655;46.056;13.616;2023-05-10T12:07:30;12.48;;;8.63;;
35550;SDS011;21655;46.056;13.616;2023-05-10T12:10:12;10.82;;;8.90;;
35550;SDS011;21655;46.056;13.616;2023-05-10T12:12:44;12.93;;;9.35;;
35550;SDS011;21655;46.056;13.616;2023-05-10T12:15:16;13.80;;;9.82;;
35550;SDS011;21655;46.056;13.616;2023-05-10T12:17:45;13.52;;;9.63;;
35550;SDS011;21655;46.056;13.616;2023-05-10T12:20:20;13.70;;;9.93;;
35550;SDS011;21655;46.056;13.616;2023-05-10T12:22:51;12.23;;;8.15;;
35550;SDS011;21655;46.056;13.616;2023-05-10T12:25:18;12.82;;;8.48;;
35550;SDS011;21655;46.056;13.616;2023-05-10T12:27:48;11.02;;;8.52;;
35550;SDS011;21655;46.056;13.616;2023-05-10T12:30:22;10.93;;;8.18;;
35550;SDS011;21655;46.056;13.616;2023-05-10T12:32:48;14.27;;;9.27;;
35550;SDS011;21655;46.056;13.616;2023-05-10T12:35:14;13.55;;;9.93;;
35550;SDS011;21655;46.056;13.616;2023-05-10T12:37:41;10.80;;;8.27;;
35550;SDS011;21655;46.056;13.616;2023-05-10T12:40:08;13.60;;;8.98;;
35550;SDS011;21655;46.056;13.616;2023-05-10T12:42:37;10.32;;;7.63;;
35550;SDS011;21655;46.056;13.616;2023-05-10T12:45:04;16.63;;;8.60;;
35550;SDS011;21655;46.056;13.616;2023-05-10T12:47:30;10.95;;;8.18;;
35550;SDS011;21655;46.056;13.616;2023-05-10T12:49:59;11.27;;;8.10;;
35550;SDS011;21655;46.056;13.616;2023-05-10T12:52:26;12.18;;;7.82;;
35550;SDS011;21655;46.056;13.616;2023-05-10T12:54:52;16.80;;;10.65;;
35550;SDS011;21655;46.056;13.616;2023-05-10T12:57:18;12.50;;;9.45;;
35550;SDS011;21655;46.056;13.616;2023-05-10T12:59:45;13.05;;;9.35;;
35550;SDS011;21655;46.056;13.616;2023-05-10T13:02:10;14.27;;;8.75;;
35550;SDS011;21655;46.056;13.616;2023-05-10T13:04:36;12.35;;;8.70;;
35550;SDS011;21655;46.056;13.616;2023-05-10T13:07:04;11.95;;;8.80;;
35550;SDS011;21655;46.056;13.616;2023-05-10T13:09:33;14.60;;;9.13;;
35550;SDS011;21655;46.056;13.616;2023-05-10T13:11:59;11.38;;;8.73;;
35550;SDS011;21655;46.056;13.616;2023-05-10T13:14:24;11.65;;;8.35;;
35550;SDS011;21655;46.056;13.616;2023-05-10T13:16:50;10.80;;;8.55;;
35550;SDS011;21655;46.056;13.616;2023-05-10T13:19:15;14.07;;;8.35;;
35550;SDS011;21655;46.056;13.616;2023-05-10T13:21:41;12.98;;;9.10;;
35550;SDS011;21655;46.056;13.616;2023-05-10T13:24:07;10.57;;;7.97;;
35550;SDS011;21655;46.056;13.616;2023-05-10T13:26:33;13.57;;;8.13;;
35550;SDS011;21655;46.056;13.616;2023-05-10T13:28:58;12.43;;;8.70;;
35550;SDS011;21655;46.056;13.616;2023-05-10T13:31:24;13.40;;;8.70;;
35550;SDS011;21655;46.056;13.616;2023-05-10T13:33:50;14.52;;;8.77;;
35550;SDS011;21655;46.056;13.616;2023-05-10T13:36:15;14.70;;;8.38;;
35550;SDS011;21655;46.056;13.616;2023-05-10T13:38:41;18.55;;;9.77;;
35550;SDS011;21655;46.056;13.616;2023-05-10T13:41:06;12.80;;;8.48;;
35550;SDS011;21655;46.056;13.616;2023-05-10T13:43:31;14.50;;;8.68;;
35550;SDS011;21655;46.056;13.616;2023-05-10T13:45:57;11.48;;;8.15;;
35550;SDS011;21655;46.056;13.616;2023-05-10T13:48:22;10.63;;;8.82;;
35550;SDS011;21655;46.056;13.616;2023-05-10T13:50:48;9.48;;;8.23;;
35550;SDS011;21655;46.056;13.616;2023-05-10T13:53:13;13.05;;;9.25;;
35550;SDS011;21655;46.056;13.616;2023-05-10T13:55:39;13.77;;;10.07;;
35550;SDS011;21655;46.056;13.616;2023-05-10T13:58:04;10.35;;;8.75;;
35550;SDS011;21655;46.056;13.616;2023-05-10T14:00:30;12.68;;;10.23;;
35550;SDS011;21655;46.056;13.616;2023-05-10T14:02:55;13.90;;;9.10;;
35550;SDS011;21655;46.056;13.616;2023-05-10T14:05:21;10.82;;;8.65;;
35550;SDS011;21655;46.056;13.616;2023-05-10T14:07:46;12.93;;;8.35;;
35550;SDS011;21655;46.056;13.616;2023-05-10T14:10:12;12.48;;;9.55;;
35550;SDS011;21655;46.056;13.616;2023-05-10T14:12:37;14.18;;;9.35;;
35550;SDS011;21655;46.056;13.616;2023-05-10T14:15:03;17.23;;;8.60;;
35550;SDS011;21655;46.056;13.616;2023-05-10T14:17:31;14.98;;;9.43;;
35550;SDS011;21655;46.056;13.616;2023-05-10T14:19:56;14.48;;;9.00;;
35550;SDS011;21655;46.056;13.616;2023-05-10T14:22:22;12.70;;;8.90;;
35550;SDS011;21655;46.056;13.616;2023-05-10T14:24:48;12.15;;;9.40;;
35550;SDS011;21655;46.056;13.616;2023-05-10T14:27:13;10.48;;;8.15;;
35550;SDS011;21655;46.056;13.616;2023-05-10T14:29:39;18.23;;;9.90;;
35550;SDS011;21655;46.056;13.616;2023-05-10T14:32:05;12.98;;;9.73;;
35550;SDS011;21655;46.056;13.616;2023-05-10T14:34:30;12.13;;;9.38;;
35550;SDS011;21655;46.056;13.616;2023-05-10T14:36:56;14.38;;;9.85;;
35550;SDS011;21655;46.056;13.616;2023-05-10T14:39:21;11.73;;;9.38;;
35550;SDS011;21655;46.056;13.616;2023-05-10T14:41:47;15.40;;;10.77;;
35550;SDS011;21655;46.056;13.616;2023-05-10T14:44:13;16.15;;;10.18;;
35550;SDS011;21655;46.056;13.616;2023-05-10T14:46:40;16.55;;;10.52;;
35550;SDS011;21655;46.056;13.616;2023-05-10T14:49:06;19.25;;;12.13;;
35550;SDS011;21655;46.056;13.616;2023-05-10T14:51:32;23.15;;;9.88;;
35550;SDS011;21655;46.056;13.616;2023-05-10T14:53:57;11.18;;;9.18;;
35550;SDS011;21655;46.056;13.616;2023-05-10T14:56:23;18.02;;;11.38;;
35550;SDS011;21655;46.056;13.616;2023-05-10T14:58:49;14.55;;;10.25;;
35550;SDS011;21655;46.056;13.616;2023-05-10T15:01:15;12.27;;;9.32;;
35550;SDS011;21655;46.056;13.616;2023-05-10T15:03:40;18.30;;;12.15;;